createdAt,value
2022-11-22T00:00:43.498Z,77081.47
2022-11-22T00:03:19.608Z,77087.53
2022-11-22T00:05:46.887Z,77087.53
2022-11-22T00:08:13.735Z,77085.50
2022-11-22T00:10:41.184Z,77083.50
2022-11-22T00:13:08.168Z,77083.50
2022-11-22T00:15:35.606Z,77079.44
2022-11-22T00:18:02.501Z,77081.47
2022-11-22T00:20:29.666Z,77083.50
2022-11-22T00:22:57.586Z,77079.44
2022-11-22T00:25:25.384Z,77083.50
2022-11-22T00:27:52.704Z,77081.47
2022-11-22T00:30:19.930Z,77087.53
2022-11-22T00:32:46.883Z,77093.63
2022-11-22T00:35:14.216Z,77085.50
2022-11-22T00:37:41.393Z,77081.47
2022-11-22T00:40:10.511Z,77083.50
2022-11-22T00:42:37.510Z,77089.56
2022-11-22T00:45:05.616Z,77089.56
2022-11-22T00:47:32.975Z,77087.53
2022-11-22T00:50:00.041Z,77087.53
2022-11-22T00:52:27.005Z,77091.59
2022-11-22T00:54:55.132Z,77099.72
2022-11-22T00:57:22.583Z,77095.66
2022-11-22T00:59:49.833Z,77095.66
2022-11-22T01:02:17.258Z,77091.59
2022-11-22T01:04:44.629Z,77087.53
2022-11-22T01:07:11.805Z,77095.66
2022-11-22T01:09:39.211Z,77091.59
2022-11-22T01:12:06.148Z,77095.66
2022-11-22T01:14:33.310Z,77091.59
2022-11-22T01:17:00.088Z,77105.78
2022-11-22T01:19:27.427Z,77111.88
2022-11-22T01:21:54.448Z,77103.75
2022-11-22T01:24:21.558Z,77103.75
2022-11-22T01:26:48.379Z,77107.81
2022-11-22T01:29:15.697Z,77107.81
2022-11-22T01:31:42.520Z,77107.81
2022-11-22T01:34:09.643Z,77103.75
2022-11-22T01:36:36.628Z,77103.75
2022-11-22T01:39:04.029Z,77103.75
2022-11-22T01:41:31.228Z,77103.75
2022-11-22T01:43:58.355Z,77099.72
2022-11-22T01:46:34.181Z,77097.69
2022-11-22T01:49:14.332Z,77095.66
2022-11-22T01:51:44.252Z,77093.63
2022-11-22T01:54:17.730Z,77093.63
2022-11-22T01:56:48.173Z,77101.72
2022-11-22T01:59:19.161Z,77095.66
2022-11-22T02:01:46.470Z,77111.88
2022-11-22T02:04:17.200Z,77105.78
2022-11-22T02:06:50.786Z,77107.81
2022-11-22T02:09:18.486Z,77111.88
2022-11-22T02:11:50.338Z,77124.03
2022-11-22T02:14:21.994Z,77119.97
2022-11-22T02:16:49.074Z,77119.97
2022-11-22T02:19:23.755Z,77117.94
2022-11-22T02:21:57.826Z,77119.97
2022-11-22T02:24:36.033Z,77124.03
2022-11-22T02:27:03.031Z,77126.06
2022-11-22T02:29:31.841Z,77119.97
2022-11-22T02:31:59.022Z,77115.94
2022-11-22T02:34:26.131Z,77124.03
2022-11-22T02:36:54.706Z,77128.09
2022-11-22T02:39:29.687Z,77134.16
2022-11-22T02:41:57.382Z,77134.16
2022-11-22T02:44:25.045Z,77132.16
2022-11-22T02:46:54.149Z,77128.09
2022-11-22T02:49:24.575Z,77128.09
2022-11-22T02:51:53.333Z,77128.09
2022-11-22T02:54:21.257Z,77128.09
2022-11-22T02:56:48.277Z,77124.03
2022-11-22T02:59:15.419Z,77128.09
2022-11-22T03:01:44.791Z,77128.09
2022-11-22T03:04:25.045Z,77128.09
2022-11-22T03:06:57.109Z,77126.06
2022-11-22T03:09:25.756Z,77119.97
2022-11-22T03:11:53.836Z,77111.88
2022-11-22T03:14:21.155Z,77124.03
2022-11-22T03:16:48.735Z,77115.94
2022-11-22T03:19:16.544Z,77115.94
2022-11-22T03:21:44.256Z,77115.94
2022-11-22T03:24:11.725Z,77115.94
2022-11-22T03:26:39.167Z,77128.09
2022-11-22T03:29:06.400Z,77132.16
2022-11-22T03:31:33.324Z,77128.09
2022-11-22T03:34:00.617Z,77132.16
2022-11-22T03:36:28.076Z,77132.16
2022-11-22T03:38:55.180Z,77124.03
2022-11-22T03:41:22.110Z,77124.03
2022-11-22T03:43:49.277Z,77119.97
2022-11-22T03:46:17.717Z,77126.06
2022-11-22T03:48:45.184Z,77140.25
2022-11-22T03:51:12.294Z,77130.13
2022-11-22T03:53:39.656Z,77128.09
2022-11-22T03:56:06.957Z,77132.16
2022-11-22T03:58:34.237Z,77136.19
2022-11-22T04:01:01.786Z,77142.28
2022-11-22T04:03:29.198Z,77132.16
2022-11-22T04:05:56.268Z,77132.16
2022-11-22T04:08:23.642Z,77132.16
2022-11-22T04:10:51.348Z,77132.16
2022-11-22T04:13:19.788Z,77128.09
2022-11-22T04:15:46.676Z,77128.09
2022-11-22T04:18:14.699Z,77132.16
2022-11-22T04:21:00.608Z,77122.00
2022-11-22T04:23:33.482Z,77115.94
2022-11-22T04:26:00.911Z,77124.03
2022-11-22T04:29:01.413Z,77119.97
2022-11-22T04:31:33.524Z,77113.91
2022-11-22T04:34:00.713Z,77115.94
2022-11-22T04:36:27.521Z,77124.03
2022-11-22T04:38:54.651Z,77128.09
2022-11-22T04:41:21.521Z,77119.97
2022-11-22T04:44:24.019Z,77113.91
2022-11-22T04:46:50.900Z,77119.97
2022-11-22T04:49:18.010Z,77115.94
2022-11-22T04:52:03.570Z,77119.97
2022-11-22T04:54:30.888Z,77124.03
2022-11-22T04:56:58.186Z,77111.88
2022-11-22T04:59:25.440Z,77111.88
2022-11-22T05:01:53.041Z,77124.03
2022-11-22T05:04:20.170Z,77124.03
2022-11-22T05:06:47.192Z,77124.03
2022-11-22T05:09:14.402Z,77122.00
2022-11-22T05:11:41.244Z,77124.03
2022-11-22T05:14:09.871Z,77132.16
2022-11-22T05:16:36.821Z,77130.13
2022-11-22T05:19:04.254Z,77130.13
2022-11-22T05:21:33.181Z,77136.19
2022-11-22T05:24:00.478Z,77132.16
2022-11-22T05:26:29.582Z,77124.03
2022-11-22T05:28:58.245Z,77132.16
2022-11-22T05:31:27.658Z,77132.16
2022-11-22T05:33:56.512Z,77130.13
2022-11-22T05:36:24.732Z,77132.16
2022-11-22T05:38:52.440Z,77136.19
2022-11-22T05:41:19.829Z,77144.31
2022-11-22T05:43:47.307Z,77150.41
2022-11-22T05:46:23.997Z,77148.38
2022-11-22T05:48:53.812Z,77160.53
2022-11-22T05:51:23.573Z,77160.53
2022-11-22T05:53:51.385Z,77156.47
2022-11-22T05:56:20.757Z,77152.41
2022-11-22T05:58:47.925Z,77154.44
2022-11-22T06:01:20.072Z,77156.47
2022-11-22T06:03:48.657Z,77160.53
2022-11-22T06:06:16.472Z,77156.47
2022-11-22T06:08:47.822Z,77148.38
2022-11-22T06:11:23.948Z,77152.41
2022-11-22T06:14:00.111Z,77152.41
2022-11-22T06:16:27.576Z,77160.53
2022-11-22T06:18:55.339Z,77154.44
2022-11-22T06:21:24.951Z,77156.47
2022-11-22T06:23:54.248Z,77152.41
2022-11-22T06:26:23.208Z,77152.41
2022-11-22T06:28:51.350Z,77166.59
2022-11-22T06:31:21.380Z,77164.59
2022-11-22T06:33:49.501Z,77166.59
2022-11-22T06:36:19.405Z,77164.59
2022-11-22T06:38:47.037Z,77164.59
2022-11-22T06:41:17.035Z,77164.59
2022-11-22T06:43:48.964Z,77172.69
2022-11-22T06:46:22.763Z,77176.75
2022-11-22T06:48:50.584Z,77180.81
2022-11-22T06:51:20.469Z,77180.81
2022-11-22T06:53:49.596Z,77172.69
2022-11-22T06:56:20.995Z,77164.59
2022-11-22T06:58:49.109Z,77160.53
2022-11-22T07:01:27.913Z,77176.75
2022-11-22T07:03:58.880Z,77168.63
2022-11-22T07:06:31.662Z,77164.59
2022-11-22T07:09:00.284Z,77160.53
2022-11-22T07:11:30.147Z,77158.50
2022-11-22T07:14:05.000Z,77160.53
2022-11-22T07:16:36.053Z,77160.53
2022-11-22T07:19:03.916Z,77156.47
2022-11-22T07:21:32.901Z,77162.56
2022-11-22T07:24:00.825Z,77152.41
2022-11-22T07:26:28.670Z,77164.59
2022-11-22T07:28:56.045Z,77160.53
2022-11-22T07:31:23.447Z,77160.53
2022-11-22T07:33:50.698Z,77152.41
2022-11-22T07:36:20.902Z,77152.41
2022-11-22T07:38:49.192Z,77144.31
2022-11-22T07:41:17.896Z,77148.38
2022-11-22T07:43:47.046Z,77136.19
2022-11-22T07:46:31.442Z,77128.09
2022-11-22T07:49:01.568Z,77130.13
2022-11-22T07:51:29.723Z,77140.25
2022-11-22T07:53:58.018Z,77144.31
2022-11-22T07:56:25.350Z,77144.31
2022-11-22T07:58:52.688Z,77148.38
2022-11-22T08:01:20.178Z,77144.31
2022-11-22T08:03:47.439Z,77158.50
2022-11-22T08:06:16.646Z,77160.53
2022-11-22T08:08:44.421Z,77162.56
2022-11-22T08:11:12.231Z,77152.41
2022-11-22T08:13:40.504Z,77152.41
2022-11-22T08:16:10.507Z,77144.31
2022-11-22T08:18:38.626Z,77140.25
2022-11-22T08:21:14.339Z,77134.16
2022-11-22T08:23:42.386Z,77132.16
2022-11-22T08:26:12.704Z,77132.16
2022-11-22T08:28:42.063Z,77119.97
2022-11-22T08:31:12.848Z,77130.13
2022-11-22T08:33:58.493Z,77140.25
2022-11-22T08:36:26.933Z,77144.31
2022-11-22T08:38:54.290Z,77152.41
2022-11-22T08:41:22.423Z,77156.47
2022-11-22T08:43:50.765Z,77156.47
2022-11-22T08:46:19.181Z,77150.41
2022-11-22T08:48:46.920Z,77140.25
2022-11-22T08:51:14.497Z,77128.09
2022-11-22T08:53:43.681Z,77115.94
2022-11-22T08:56:13.421Z,77107.81
2022-11-22T08:58:42.521Z,77103.75
2022-11-22T09:01:16.261Z,77099.72
2022-11-22T09:03:44.499Z,77103.75
2022-11-22T09:09:35.953Z,77111.88
2022-11-22T09:11:53.560Z,77095.66
2022-11-22T09:14:20.452Z,77079.44
2022-11-22T09:16:47.781Z,77071.31
2022-11-22T09:19:15.300Z,77075.38
2022-11-22T09:21:43.169Z,77069.28
2022-11-22T09:24:10.267Z,77059.16
2022-11-22T09:26:37.764Z,77059.16
2022-11-22T09:29:05.159Z,77067.28
2022-11-22T09:31:32.675Z,77071.31
2022-11-22T09:33:59.644Z,77071.31
2022-11-22T09:36:27.725Z,77071.31
2022-11-22T09:38:56.447Z,77071.31
2022-11-22T09:41:48.376Z,77071.31
2022-11-22T09:44:38.835Z,77063.22
2022-11-22T09:47:34.936Z,77059.16
2022-11-22T09:50:40.598Z,77038.88
2022-11-22T09:53:14.336Z,77047.00
2022-11-22T09:55:46.802Z,77038.88
2022-11-22T09:58:38.021Z,77024.69
2022-11-22T10:01:41.015Z,76998.34
2022-11-22T10:04:17.598Z,76982.13
2022-11-22T10:06:50.711Z,76965.91
2022-11-22T10:10:05.273Z,76965.91
2022-11-22T10:12:41.903Z,76961.84
2022-11-22T10:15:31.777Z,76955.75
2022-11-22T10:17:58.555Z,76945.63
2022-11-22T10:20:32.530Z,76941.56
2022-11-22T10:22:59.906Z,76933.47
2022-11-22T10:26:03.741Z,76925.34
2022-11-22T10:28:39.018Z,76913.19
2022-11-22T10:31:26.962Z,76899.00
2022-11-22T10:34:15.612Z,76888.88
2022-11-22T10:37:02.525Z,76884.81
2022-11-22T10:39:54.984Z,76892.91
2022-11-22T10:42:57.579Z,76876.69
2022-11-22T10:45:31.111Z,76892.91
2022-11-22T10:48:20.298Z,76901.03
2022-11-22T10:51:05.347Z,76901.03
2022-11-22T10:54:13.065Z,76905.09
2022-11-22T10:56:50.964Z,76911.16
2022-11-22T10:59:28.932Z,76917.25
2022-11-22T11:02:17.971Z,76909.13
2022-11-22T11:04:47.643Z,76921.31
2022-11-22T11:07:22.765Z,76921.31
2022-11-22T11:10:11.224Z,76921.31
2022-11-22T11:13:04.168Z,76901.03
2022-11-22T11:15:56.707Z,76888.88
2022-11-22T11:18:34.541Z,76878.72
2022-11-22T11:21:02.407Z,76886.84
2022-11-22T11:23:29.598Z,76901.03
2022-11-22T11:26:18.506Z,76905.09
2022-11-22T11:28:45.849Z,76901.03
2022-11-22T11:31:13.866Z,76880.75
2022-11-22T11:33:42.006Z,76878.72
2022-11-22T11:36:13.897Z,76864.53
2022-11-22T11:38:41.323Z,76852.38
2022-11-22T11:41:21.158Z,76854.41
2022-11-22T11:43:50.713Z,76858.44
2022-11-22T11:46:24.777Z,76860.47
2022-11-22T11:49:08.717Z,76860.47
2022-11-22T11:51:55.581Z,76860.47
2022-11-22T11:54:45.055Z,76864.53
2022-11-22T11:57:19.148Z,76856.44
2022-11-22T11:59:50.281Z,76864.53
2022-11-22T12:02:40.738Z,76868.59
2022-11-22T12:05:28.037Z,76864.53
2022-11-22T12:07:55.683Z,76866.56
2022-11-22T12:10:34.996Z,76894.94
2022-11-22T12:13:30.328Z,76901.03
2022-11-22T12:16:19.054Z,76901.03
2022-11-22T12:19:08.055Z,76907.09
2022-11-22T12:22:01.067Z,76896.97
2022-11-22T12:24:57.316Z,76901.03
2022-11-22T12:27:31.244Z,76917.25
2022-11-22T12:29:59.140Z,76925.34
2022-11-22T12:32:32.877Z,76935.50
2022-11-22T12:35:12.437Z,76941.56
2022-11-22T12:37:56.259Z,76937.53
2022-11-22T12:40:27.915Z,76941.56
2022-11-22T12:43:07.099Z,76947.66
2022-11-22T12:45:44.853Z,76939.53
2022-11-22T12:48:30.532Z,76929.41
2022-11-22T12:51:06.523Z,76917.25
2022-11-22T12:53:44.103Z,76915.22
2022-11-22T12:56:59.033Z,76919.28
2022-11-22T12:59:44.055Z,76921.31
2022-11-22T13:02:30.423Z,76917.25
2022-11-22T13:05:06.554Z,76929.41
2022-11-22T13:07:36.950Z,76933.47
2022-11-22T13:10:39.232Z,76933.47
2022-11-22T13:13:17.139Z,76947.66
2022-11-22T13:15:45.700Z,76949.69
2022-11-22T13:18:16.816Z,76953.75
2022-11-22T13:21:03.139Z,76961.84
2022-11-22T13:23:39.574Z,76953.75
2022-11-22T13:26:16.757Z,76974.00
2022-11-22T13:28:45.342Z,76957.78
2022-11-22T13:31:12.498Z,76949.69
2022-11-22T13:33:43.782Z,76949.69
2022-11-22T13:36:29.498Z,76957.78
2022-11-22T13:38:59.464Z,76963.88
2022-11-22T13:41:28.226Z,76953.75
2022-11-22T13:44:21.796Z,76967.94
2022-11-22T13:47:13.623Z,76959.81
2022-11-22T13:49:48.946Z,76961.84
2022-11-22T13:52:16.366Z,76967.94
2022-11-22T13:54:46.720Z,76969.94
2022-11-22T13:57:41.550Z,76978.06
2022-11-22T14:00:12.276Z,76974.00
2022-11-22T14:02:40.233Z,76986.16
2022-11-22T14:05:41.007Z,76990.22
2022-11-22T14:08:27.322Z,76990.22
2022-11-22T14:10:54.322Z,76996.31
2022-11-22T14:13:48.470Z,76998.34
2022-11-22T14:16:29.744Z,77006.44
2022-11-22T14:19:19.837Z,77018.63
2022-11-22T14:22:07.966Z,77014.56
2022-11-22T14:25:17.640Z,77022.66
2022-11-22T14:28:04.222Z,77022.66
2022-11-22T14:30:48.942Z,77047.00
2022-11-22T14:33:18.720Z,77034.84
2022-11-22T14:36:08.456Z,77030.78
2022-11-22T14:38:38.963Z,77022.66
2022-11-22T14:41:28.298Z,77034.84
2022-11-22T14:44:10.635Z,77034.84
2022-11-22T14:46:53.273Z,77042.94
2022-11-22T14:49:21.964Z,77042.94
2022-11-22T14:51:53.220Z,77042.94
2022-11-22T14:54:30.396Z,77065.25
2022-11-22T14:57:04.768Z,77063.22
2022-11-22T14:59:57.235Z,77065.25
2022-11-22T15:02:53.361Z,77075.38
2022-11-22T15:09:10.443Z,77075.38
2022-11-22T15:09:14.329Z,77079.44
2022-11-22T15:12:00.314Z,77083.50
2022-11-22T15:14:33.627Z,77079.44
2022-11-22T15:57:35.410Z,77103.75
2022-11-22T16:00:10.590Z,77111.88
2022-11-22T16:02:47.260Z,77117.94
2022-11-22T16:06:05.619Z,77113.91
2022-11-22T16:08:03.267Z,77119.97
2022-11-22T16:10:37.815Z,77119.97
2022-11-22T16:13:27.321Z,77126.06
2022-11-22T16:16:13.146Z,77132.16
2022-11-22T16:18:41.713Z,77134.16
2022-11-22T16:21:11.886Z,77130.13
2022-11-22T16:23:46.225Z,77140.25
2022-11-22T16:26:29.397Z,77136.19
2022-11-22T16:29:16.097Z,77132.16
2022-11-22T16:31:43.676Z,77132.16
2022-11-22T16:34:16.343Z,77128.09
2022-11-22T16:36:43.488Z,77132.16
2022-11-22T16:39:10.289Z,77128.09
2022-11-22T16:41:37.539Z,77128.09
2022-11-22T16:44:12.756Z,77128.09
2022-11-22T16:46:41.425Z,77124.03
2022-11-22T16:49:26.764Z,77128.09
2022-11-22T16:51:53.971Z,77140.25
2022-11-22T16:54:23.831Z,77148.38
2022-11-22T16:56:51.215Z,77152.41
2022-11-22T16:59:18.513Z,77164.59
2022-11-22T17:01:46.540Z,77162.56
2022-11-22T17:04:21.521Z,77168.63
2022-11-22T17:06:49.804Z,77172.69
2022-11-22T17:09:16.789Z,77168.63
2022-11-22T17:11:44.986Z,77186.88
2022-11-22T17:14:16.649Z,77184.84
2022-11-22T17:16:45.921Z,77180.81
2022-11-22T17:22:01.096Z,77172.69
2022-11-22T17:24:29.366Z,77164.59
2022-11-22T17:26:57.061Z,77164.59
2022-11-22T17:32:14.926Z,77164.59
2022-11-22T17:34:41.728Z,77172.69
2022-11-22T17:37:12.867Z,77176.75
2022-11-22T17:39:40.250Z,77188.91
2022-11-22T17:42:07.880Z,77190.94
2022-11-22T17:44:35.781Z,77188.91
2022-11-22T17:47:03.157Z,77180.81
2022-11-22T17:49:31.011Z,77180.81
2022-11-22T17:51:58.797Z,77195.00
2022-11-22T17:54:25.753Z,77188.91
2022-11-22T17:56:52.888Z,77205.13
2022-11-22T17:59:19.840Z,77197.03
2022-11-22T18:01:47.113Z,77192.97
2022-11-22T18:04:14.773Z,77197.03
2022-11-22T18:06:42.041Z,77207.16
2022-11-22T18:09:09.353Z,77197.03
2022-11-22T18:11:36.684Z,77195.00
2022-11-22T18:14:03.651Z,77205.13
2022-11-22T18:16:31.350Z,77197.03
2022-11-22T18:18:59.311Z,77205.13
2022-11-22T18:21:29.699Z,77209.19
2022-11-22T18:24:00.483Z,77211.22
2022-11-22T18:26:39.537Z,77213.25
2022-11-22T18:31:56.118Z,77209.19
2022-11-22T18:34:23.735Z,77209.19
2022-11-22T18:37:07.517Z,77221.34
2022-11-22T18:39:38.254Z,77209.19
2022-11-22T18:42:09.023Z,77209.19
2022-11-22T18:44:36.101Z,77217.28
2022-11-22T18:47:03.470Z,77215.28
2022-11-22T18:49:30.939Z,77219.31
2022-11-22T18:51:58.710Z,77213.25
2022-11-22T18:54:25.802Z,77221.34
2022-11-22T18:56:53.073Z,77217.28
2022-11-22T18:59:20.653Z,77209.19
2022-11-22T19:01:47.954Z,77213.25
2022-11-22T19:04:15.708Z,77217.28
2022-11-22T19:06:43.335Z,77225.41
2022-11-22T19:09:11.248Z,77213.25
2022-11-22T19:11:39.175Z,77217.28
2022-11-22T19:14:06.527Z,77217.28
2022-11-22T19:16:33.773Z,77213.25
2022-11-22T19:19:01.169Z,77213.25
2022-11-22T19:21:30.266Z,77217.28
2022-11-22T19:23:58.094Z,77213.25
2022-11-22T19:26:27.626Z,77215.28
2022-11-22T19:28:56.567Z,77207.16
2022-11-22T19:31:27.897Z,77197.03
2022-11-22T19:33:55.553Z,77209.19
2022-11-22T19:36:30.722Z,77217.28
2022-11-22T19:39:00.383Z,77229.47
2022-11-22T19:41:27.800Z,77245.69
2022-11-22T19:43:55.808Z,77237.56
2022-11-22T19:46:24.352Z,77229.47
2022-11-22T19:49:03.752Z,77227.44
2022-11-22T19:51:31.856Z,77225.41
2022-11-22T19:54:02.168Z,77225.41
2022-11-22T19:56:39.031Z,77225.41
2022-11-22T19:59:08.019Z,77231.50
2022-11-22T20:01:35.568Z,77231.50
2022-11-22T20:04:05.463Z,77233.53
2022-11-22T20:06:34.615Z,77241.63
2022-11-22T20:09:10.014Z,77239.59
2022-11-22T20:11:42.263Z,77241.63
2022-11-22T20:14:10.140Z,77249.75
2022-11-22T20:16:41.642Z,77249.75
2022-11-22T20:19:11.503Z,77253.78
2022-11-22T20:21:40.018Z,77245.69
2022-11-22T20:24:07.286Z,77253.78
2022-11-22T20:26:35.023Z,77257.84
2022-11-22T20:29:06.116Z,77253.78
2022-11-22T20:31:35.856Z,77245.69
2022-11-22T20:34:03.544Z,77257.84
2022-11-22T20:36:34.425Z,77245.69
2022-11-22T20:39:05.555Z,77274.06
2022-11-22T20:41:36.495Z,77241.63
2022-11-22T20:44:03.825Z,77237.56
2022-11-22T20:46:31.162Z,77233.53
2022-11-22T20:48:58.361Z,77249.75
2022-11-22T20:51:27.359Z,77247.72
2022-11-22T20:53:55.768Z,77251.75
2022-11-22T20:56:24.018Z,77249.75
2022-11-22T20:58:51.143Z,77241.63
2022-11-22T21:01:23.599Z,77245.69
2022-11-22T21:03:50.666Z,77249.75
2022-11-22T21:06:19.307Z,77257.84
2022-11-22T21:08:46.474Z,77253.78
2022-11-22T21:11:19.989Z,77253.78
2022-11-22T21:13:47.988Z,77249.75
2022-11-22T21:16:23.938Z,77257.84
2022-11-22T21:18:57.227Z,77249.75
2022-11-22T21:21:25.668Z,77257.84
2022-11-22T21:23:55.858Z,77263.94
2022-11-22T21:26:24.364Z,77257.84
2022-11-22T21:28:52.864Z,77261.91
2022-11-22T21:31:21.439Z,77270.00
2022-11-22T21:33:49.312Z,77261.91
2022-11-22T21:36:17.800Z,77261.91
2022-11-22T21:38:45.074Z,77257.84
2022-11-22T21:41:38.741Z,77261.91
2022-11-22T21:44:03.398Z,77270.00
2022-11-22T21:46:30.534Z,77270.00
2022-11-22T21:48:57.460Z,77253.78
2022-11-22T21:51:26.274Z,77245.69
2022-11-22T21:54:00.785Z,77239.59
2022-11-22T21:56:28.809Z,77233.53
2022-11-22T21:58:55.959Z,77225.41
2022-11-22T22:01:41.562Z,77223.38
2022-11-22T22:04:08.731Z,77225.41
2022-11-22T22:06:35.735Z,77219.31
2022-11-22T22:09:03.533Z,77209.19
2022-11-22T22:11:30.349Z,77215.28
2022-11-22T22:13:58.995Z,77209.19
2022-11-22T22:16:26.366Z,77213.25
2022-11-22T22:18:54.352Z,77221.34
2022-11-22T22:21:21.593Z,77213.25
2022-11-22T22:23:48.869Z,77221.34
2022-11-22T22:26:17.223Z,77221.34
2022-11-22T22:28:45.387Z,77225.41
2022-11-22T22:31:13.791Z,77221.34
2022-11-22T22:33:42.334Z,77229.47
2022-11-22T22:36:11.407Z,77225.41
2022-11-22T22:38:38.770Z,77221.34
2022-11-22T22:41:06.177Z,77217.28
2022-11-22T22:43:35.620Z,77213.25
2022-11-22T22:46:27.227Z,77209.19
2022-11-22T22:48:55.082Z,77209.19
2022-11-22T22:51:30.433Z,77209.19
2022-11-22T22:53:59.625Z,77213.25
2022-11-22T22:56:29.456Z,77201.06
2022-11-22T22:58:58.099Z,77205.13
2022-11-22T23:01:27.510Z,77205.13
2022-11-22T23:04:00.214Z,77197.03
2022-11-22T23:06:29.678Z,77209.19
2022-11-22T23:08:59.032Z,77213.25
2022-11-22T23:11:50.015Z,77209.19
2022-11-22T23:14:22.972Z,77211.22
2022-11-22T23:16:54.534Z,77225.41
2022-11-22T23:19:25.401Z,77225.41
2022-11-22T23:21:52.410Z,77229.47
2022-11-22T23:24:19.779Z,77217.28
2022-11-22T23:26:47.159Z,77211.22
2022-11-22T23:29:14.564Z,77205.13
2022-11-22T23:31:41.563Z,77197.03
2022-11-22T23:34:11.221Z,77192.97
2022-11-22T23:36:41.112Z,77201.06
2022-11-22T23:39:09.239Z,77195.00
2022-11-22T23:41:36.227Z,77201.06
2022-11-22T23:44:04.238Z,77201.06
2022-11-22T23:46:31.196Z,77205.13
2022-11-22T23:49:00.357Z,77205.13
2022-11-22T23:51:29.297Z,77197.03
2022-11-22T23:53:58.135Z,77201.06
2022-11-22T23:56:26.199Z,77217.28
2022-11-22T23:58:54.067Z,77205.13
